sensor_id;sensor_type;location;lat;lon;timestamp;temperature;humidity
1468;DHT22;727;48.892;9.544;2022-11-12T00:00:11;4.10;99.90
1468;DHT22;727;48.892;9.544;2022-11-12T00:02:38;4.00;99.90
1468;DHT22;727;48.892;9.544;2022-11-12T00:05:05;3.90;99.90
1468;DHT22;727;48.892;9.544;2022-11-12T00:07:32;3.90;99.90
1468;DHT22;727;48.892;9.544;2022-11-12T00:09:59;3.80;99.90
1468;DHT22;727;48.892;9.544;2022-11-12T00:12:27;3.90;99.90
1468;DHT22;727;48.892;9.544;2022-11-12T00:14:54;3.80;99.90
1468;DHT22;727;48.892;9.544;2022-11-12T00:17:20;3.90;99.90
1468;DHT22;727;48.892;9.544;2022-11-12T00:19:47;3.80;99.90
1468;DHT22;727;48.892;9.544;2022-11-12T00:22:14;3.80;99.90
1468;DHT22;727;48.892;9.544;2022-11-12T00:24:41;3.70;99.90
1468;DHT22;727;48.892;9.544;2022-11-12T00:27:07;3.70;99.90
1468;DHT22;727;48.892;9.544;2022-11-12T00:29:36;3.70;99.90
1468;DHT22;727;48.892;9.544;2022-11-12T00:32:03;3.70;99.90
1468;DHT22;727;48.892;9.544;2022-11-12T00:34:30;3.70;99.90
1468;DHT22;727;48.892;9.544;2022-11-12T00:36:57;3.70;99.90
1468;DHT22;727;48.892;9.544;2022-11-12T00:39:24;3.70;99.90
1468;DHT22;727;48.892;9.544;2022-11-12T00:41:51;3.60;99.90
1468;DHT22;727;48.892;9.544;2022-11-12T00:44:18;3.60;99.90
1468;DHT22;727;48.892;9.544;2022-11-12T00:46:47;3.60;99.90
1468;DHT22;727;48.892;9.544;2022-11-12T00:49:14;3.60;99.90
1468;DHT22;727;48.892;9.544;2022-11-12T00:51:40;3.60;99.90
1468;DHT22;727;48.892;9.544;2022-11-12T00:54:07;3.70;99.90
1468;DHT22;727;48.892;9.544;2022-11-12T00:56:34;3.70;99.90
1468;DHT22;727;48.892;9.544;2022-11-12T00:59:02;3.70;99.90
1468;DHT22;727;48.892;9.544;2022-11-12T01:01:28;3.70;99.90
1468;DHT22;727;48.892;9.544;2022-11-12T01:03:58;3.60;99.90
1468;DHT22;727;48.892;9.544;2022-11-12T01:06:25;3.60;99.90
1468;DHT22;727;48.892;9.544;2022-11-12T01:08:54;3.50;99.90
1468;DHT22;727;48.892;9.544;2022-11-12T01:11:23;3.40;99.90
1468;DHT22;727;48.892;9.544;2022-11-12T01:13:53;3.30;99.90
1468;DHT22;727;48.892;9.544;2022-11-12T01:16:25;3.20;99.90
1468;DHT22;727;48.892;9.544;2022-11-12T01:18:53;3.20;99.90
1468;DHT22;727;48.892;9.544;2022-11-12T01:21:22;3.20;99.90
1468;DHT22;727;48.892;9.544;2022-11-12T01:23:50;3.20;99.90
1468;DHT22;727;48.892;9.544;2022-11-12T01:26:19;3.20;99.90
1468;DHT22;727;48.892;9.544;2022-11-12T01:28:46;3.20;99.90
1468;DHT22;727;48.892;9.544;2022-11-12T01:31:15;3.20;99.90
1468;DHT22;727;48.892;9.544;2022-11-12T01:33:44;3.10;99.90
1468;DHT22;727;48.892;9.544;2022-11-12T01:36:11;3.10;99.90
1468;DHT22;727;48.892;9.544;2022-11-12T01:38:41;3.10;99.90
1468;DHT22;727;48.892;9.544;2022-11-12T01:41:10;3.10;99.90
1468;DHT22;727;48.892;9.544;2022-11-12T01:43:37;3.00;99.90
1468;DHT22;727;48.892;9.544;2022-11-12T01:46:10;3.00;99.90
1468;DHT22;727;48.892;9.544;2022-11-12T01:48:43;3.00;99.90
1468;DHT22;727;48.892;9.544;2022-11-12T01:51:13;3.00;99.90
1468;DHT22;727;48.892;9.544;2022-11-12T01:53:46;2.90;99.90
1468;DHT22;727;48.892;9.544;2022-11-12T01:56:14;2.90;99.90
1468;DHT22;727;48.892;9.544;2022-11-12T01:58:43;2.80;99.90
1468;DHT22;727;48.892;9.544;2022-11-12T02:01:10;2.80;99.90
1468;DHT22;727;48.892;9.544;2022-11-12T02:03:37;2.80;99.90
1468;DHT22;727;48.892;9.544;2022-11-12T02:06:08;2.80;99.90
1468;DHT22;727;48.892;9.544;2022-11-12T02:08:36;2.70;99.90
1468;DHT22;727;48.892;9.544;2022-11-12T02:11:12;2.70;99.90
1468;DHT22;727;48.892;9.544;2022-11-12T02:13:39;2.70;99.90
1468;DHT22;727;48.892;9.544;2022-11-12T02:16:27;2.70;99.90
1468;DHT22;727;48.892;9.544;2022-11-12T02:18:54;2.70;99.90
1468;DHT22;727;48.892;9.544;2022-11-12T02:21:23;2.70;99.90
1468;DHT22;727;48.892;9.544;2022-11-12T02:23:56;2.70;99.90
1468;DHT22;727;48.892;9.544;2022-11-12T02:26:24;2.80;99.90
1468;DHT22;727;48.892;9.544;2022-11-12T02:28:51;2.80;99.90
1468;DHT22;727;48.892;9.544;2022-11-12T02:31:18;2.70;99.90
1468;DHT22;727;48.892;9.544;2022-11-12T02:33:44;2.80;99.90
1468;DHT22;727;48.892;9.544;2022-11-12T02:36:11;2.80;99.90
1468;DHT22;727;48.892;9.544;2022-11-12T02:38:39;2.80;99.90
1468;DHT22;727;48.892;9.544;2022-11-12T02:41:06;2.70;99.90
1468;DHT22;727;48.892;9.544;2022-11-12T02:43:33;2.80;99.90
1468;DHT22;727;48.892;9.544;2022-11-12T02:45:59;2.70;99.90
1468;DHT22;727;48.892;9.544;2022-11-12T02:48:26;2.70;99.90
1468;DHT22;727;48.892;9.544;2022-11-12T02:50:53;2.70;99.90
1468;DHT22;727;48.892;9.544;2022-11-12T02:53:19;2.70;99.90
1468;DHT22;727;48.892;9.544;2022-11-12T02:55:48;2.60;99.90
1468;DHT22;727;48.892;9.544;2022-11-12T02:58:14;2.60;99.90
1468;DHT22;727;48.892;9.544;2022-11-12T03:00:42;2.60;99.90
1468;DHT22;727;48.892;9.544;2022-11-12T03:03:09;2.60;99.90
1468;DHT22;727;48.892;9.544;2022-11-12T03:05:36;2.60;99.90
1468;DHT22;727;48.892;9.544;2022-11-12T03:08:04;2.70;99.90
1468;DHT22;727;48.892;9.544;2022-11-12T03:10:31;2.70;99.90
1468;DHT22;727;48.892;9.544;2022-11-12T03:13:00;2.60;99.90
1468;DHT22;727;48.892;9.544;2022-11-12T03:15:28;2.60;99.90
1468;DHT22;727;48.892;9.544;2022-11-12T03:17:56;2.50;99.90
1468;DHT22;727;48.892;9.544;2022-11-12T03:20:23;2.50;99.90
1468;DHT22;727;48.892;9.544;2022-11-12T03:22:58;2.50;99.90
1468;DHT22;727;48.892;9.544;2022-11-12T03:25:25;2.60;99.90
1468;DHT22;727;48.892;9.544;2022-11-12T03:27:57;2.60;99.90
1468;DHT22;727;48.892;9.544;2022-11-12T03:30:26;2.60;99.90
1468;DHT22;727;48.892;9.544;2022-11-12T03:32:53;2.60;99.90
1468;DHT22;727;48.892;9.544;2022-11-12T03:35:20;2.60;99.90
1468;DHT22;727;48.892;9.544;2022-11-12T03:37:48;2.60;99.90
1468;DHT22;727;48.892;9.544;2022-11-12T03:40:16;2.70;99.90
1468;DHT22;727;48.892;9.544;2022-11-12T03:42:46;2.70;99.90
1468;DHT22;727;48.892;9.544;2022-11-12T03:45:13;2.70;99.90
1468;DHT22;727;48.892;9.544;2022-11-12T03:47:42;2.70;99.90
1468;DHT22;727;48.892;9.544;2022-11-12T03:50:09;2.70;99.90
1468;DHT22;727;48.892;9.544;2022-11-12T03:52:36;2.80;99.90
1468;DHT22;727;48.892;9.544;2022-11-12T03:55:04;2.80;99.90
1468;DHT22;727;48.892;9.544;2022-11-12T03:57:31;2.90;99.90
1468;DHT22;727;48.892;9.544;2022-11-12T03:59:58;2.80;99.90
1468;DHT22;727;48.892;9.544;2022-11-12T04:02:24;2.80;99.90
1468;DHT22;727;48.892;9.544;2022-11-12T04:04:56;2.80;99.90
1468;DHT22;727;48.892;9.544;2022-11-12T04:07:40;2.80;99.90
1468;DHT22;727;48.892;9.544;2022-11-12T04:10:24;2.80;99.90
1468;DHT22;727;48.892;9.544;2022-11-12T04:12:51;2.80;99.90
1468;DHT22;727;48.892;9.544;2022-11-12T04:15:37;2.90;99.90
1468;DHT22;727;48.892;9.544;2022-11-12T04:18:04;2.90;99.90
1468;DHT22;727;48.892;9.544;2022-11-12T04:20:50;2.90;99.90
1468;DHT22;727;48.892;9.544;2022-11-12T04:23:34;2.90;99.90
1468;DHT22;727;48.892;9.544;2022-11-12T04:26:01;3.00;99.90
1468;DHT22;727;48.892;9.544;2022-11-12T04:28:45;3.00;99.90
1468;DHT22;727;48.892;9.544;2022-11-12T04:31:25;3.10;99.90
1468;DHT22;727;48.892;9.544;2022-11-12T04:33:52;3.10;99.90
1468;DHT22;727;48.892;9.544;2022-11-12T04:36:20;3.10;99.90
1468;DHT22;727;48.892;9.544;2022-11-12T04:38:47;3.00;99.90
1468;DHT22;727;48.892;9.544;2022-11-12T04:41:13;3.10;99.90
1468;DHT22;727;48.892;9.544;2022-11-12T04:43:57;3.10;99.90
1468;DHT22;727;48.892;9.544;2022-11-12T04:46:42;3.10;99.90
1468;DHT22;727;48.892;9.544;2022-11-12T04:49:08;3.10;99.90
1468;DHT22;727;48.892;9.544;2022-11-12T04:51:36;3.10;99.90
1468;DHT22;727;48.892;9.544;2022-11-12T04:54:20;3.10;99.90
1468;DHT22;727;48.892;9.544;2022-11-12T04:56:47;3.20;99.90
1468;DHT22;727;48.892;9.544;2022-11-12T04:59:14;3.20;99.90
1468;DHT22;727;48.892;9.544;2022-11-12T05:01:40;3.20;99.90
1468;DHT22;727;48.892;9.544;2022-11-12T05:04:07;3.20;99.90
1468;DHT22;727;48.892;9.544;2022-11-12T05:06:35;3.20;99.90
1468;DHT22;727;48.892;9.544;2022-11-12T05:09:17;3.20;99.90
1468;DHT22;727;48.892;9.544;2022-11-12T05:11:45;3.20;99.90
1468;DHT22;727;48.892;9.544;2022-11-12T05:14:12;3.20;99.90
1468;DHT22;727;48.892;9.544;2022-11-12T05:16:38;3.20;99.90
1468;DHT22;727;48.892;9.544;2022-11-12T05:19:05;3.10;99.90
1468;DHT22;727;48.892;9.544;2022-11-12T05:21:32;3.10;99.90
1468;DHT22;727;48.892;9.544;2022-11-12T05:24:20;3.10;99.90
1468;DHT22;727;48.892;9.544;2022-11-12T05:26:47;3.20;99.90
1468;DHT22;727;48.892;9.544;2022-11-12T05:29:13;3.20;99.90
1468;DHT22;727;48.892;9.544;2022-11-12T05:31:40;3.20;99.90
1468;DHT22;727;48.892;9.544;2022-11-12T05:34:07;3.20;99.90
1468;DHT22;727;48.892;9.544;2022-11-12T05:36:34;3.20;99.90
1468;DHT22;727;48.892;9.544;2022-11-12T05:39:00;3.20;99.90
1468;DHT22;727;48.892;9.544;2022-11-12T05:41:29;3.20;99.90
1468;DHT22;727;48.892;9.544;2022-11-12T05:43:56;3.20;99.90
1468;DHT22;727;48.892;9.544;2022-11-12T05:46:22;3.10;99.90
1468;DHT22;727;48.892;9.544;2022-11-12T05:48:49;3.10;99.90
1468;DHT22;727;48.892;9.544;2022-11-12T05:51:16;3.10;99.90
1468;DHT22;727;48.892;9.544;2022-11-12T05:53:43;3.10;99.90
1468;DHT22;727;48.892;9.544;2022-11-12T05:56:10;3.00;99.90
1468;DHT22;727;48.892;9.544;2022-11-12T05:58:38;3.00;99.90
1468;DHT22;727;48.892;9.544;2022-11-12T06:01:05;3.00;99.90
1468;DHT22;727;48.892;9.544;2022-11-12T06:03:32;3.10;99.90
1468;DHT22;727;48.892;9.544;2022-11-12T06:05:59;3.00;99.90
1468;DHT22;727;48.892;9.544;2022-11-12T06:08:26;3.00;99.90
1468;DHT22;727;48.892;9.544;2022-11-12T06:10:53;3.00;99.90
1468;DHT22;727;48.892;9.544;2022-11-12T06:13:22;3.00;99.90
1468;DHT22;727;48.892;9.544;2022-11-12T06:15:50;3.10;99.90
1468;DHT22;727;48.892;9.544;2022-11-12T06:18:17;3.10;99.90
1468;DHT22;727;48.892;9.544;2022-11-12T06:20:44;3.00;99.90
1468;DHT22;727;48.892;9.544;2022-11-12T06:23:30;3.00;99.90
1468;DHT22;727;48.892;9.544;2022-11-12T06:25:57;2.90;99.90
1468;DHT22;727;48.892;9.544;2022-11-12T06:28:24;2.90;99.90
1468;DHT22;727;48.892;9.544;2022-11-12T06:30:52;2.90;99.90
1468;DHT22;727;48.892;9.544;2022-11-12T06:33:19;2.90;99.90
1468;DHT22;727;48.892;9.544;2022-11-12T06:35:46;2.90;99.90
1468;DHT22;727;48.892;9.544;2022-11-12T06:38:13;2.90;99.90
1468;DHT22;727;48.892;9.544;2022-11-12T06:40:40;2.90;99.90
1468;DHT22;727;48.892;9.544;2022-11-12T06:43:07;3.00;99.90
1468;DHT22;727;48.892;9.544;2022-11-12T06:45:35;3.00;99.90
1468;DHT22;727;48.892;9.544;2022-11-12T06:48:03;3.00;99.90
1468;DHT22;727;48.892;9.544;2022-11-12T06:50:30;3.10;99.90
1468;DHT22;727;48.892;9.544;2022-11-12T06:52:57;3.10;99.90
1468;DHT22;727;48.892;9.544;2022-11-12T06:55:24;3.10;99.90
1468;DHT22;727;48.892;9.544;2022-11-12T06:57:51;3.30;99.90
1468;DHT22;727;48.892;9.544;2022-11-12T07:00:18;3.40;99.90
1468;DHT22;727;48.892;9.544;2022-11-12T07:02:45;3.50;99.90
1468;DHT22;727;48.892;9.544;2022-11-12T07:05:13;3.60;99.90
1468;DHT22;727;48.892;9.544;2022-11-12T07:07:40;3.70;99.90
1468;DHT22;727;48.892;9.544;2022-11-12T07:10:08;3.80;99.90
1468;DHT22;727;48.892;9.544;2022-11-12T07:12:34;3.90;99.90
1468;DHT22;727;48.892;9.544;2022-11-12T07:15:01;4.10;99.90
1468;DHT22;727;48.892;9.544;2022-11-12T07:17:29;4.20;99.90
1468;DHT22;727;48.892;9.544;2022-11-12T07:19:56;4.50;99.90
1468;DHT22;727;48.892;9.544;2022-11-12T07:22:24;4.70;99.90
1468;DHT22;727;48.892;9.544;2022-11-12T07:24:51;5.00;99.90
1468;DHT22;727;48.892;9.544;2022-11-12T07:27:17;5.70;99.90
1468;DHT22;727;48.892;9.544;2022-11-12T07:29:44;6.40;99.90
1468;DHT22;727;48.892;9.544;2022-11-12T07:32:11;7.40;99.90
1468;DHT22;727;48.892;9.544;2022-11-12T07:34:37;8.40;99.90
1468;DHT22;727;48.892;9.544;2022-11-12T07:37:04;9.40;99.90
1468;DHT22;727;48.892;9.544;2022-11-12T07:39:32;10.30;99.90
1468;DHT22;727;48.892;9.544;2022-11-12T07:41:59;11.10;99.90
1468;DHT22;727;48.892;9.544;2022-11-12T07:44:26;11.70;99.90
1468;DHT22;727;48.892;9.544;2022-11-12T07:46:52;12.20;97.90
1468;DHT22;727;48.892;9.544;2022-11-12T07:49:19;12.60;96.10
1468;DHT22;727;48.892;9.544;2022-11-12T07:51:46;13.20;93.90
1468;DHT22;727;48.892;9.544;2022-11-12T07:54:13;13.50;93.10
1468;DHT22;727;48.892;9.544;2022-11-12T07:56:41;13.70;91.90
1468;DHT22;727;48.892;9.544;2022-11-12T07:59:07;14.10;91.30
1468;DHT22;727;48.892;9.544;2022-11-12T08:01:36;14.50;88.70
1468;DHT22;727;48.892;9.544;2022-11-12T08:04:05;15.10;87.20
1468;DHT22;727;48.892;9.544;2022-11-12T08:06:32;15.60;83.30
1468;DHT22;727;48.892;9.544;2022-11-12T08:09:02;15.70;81.20
1468;DHT22;727;48.892;9.544;2022-11-12T08:11:29;15.70;78.60
1468;DHT22;727;48.892;9.544;2022-11-12T08:13:57;15.40;79.70
1468;DHT22;727;48.892;9.544;2022-11-12T08:16:26;15.10;80.40
1468;DHT22;727;48.892;9.544;2022-11-12T08:18:53;15.00;79.40
1468;DHT22;727;48.892;9.544;2022-11-12T08:21:19;14.70;81.90
1468;DHT22;727;48.892;9.544;2022-11-12T08:23:46;14.10;83.50
1468;DHT22;727;48.892;9.544;2022-11-12T08:26:14;13.60;85.10
1468;DHT22;727;48.892;9.544;2022-11-12T08:28:41;13.70;86.40
1468;DHT22;727;48.892;9.544;2022-11-12T08:31:11;13.50;87.20
1468;DHT22;727;48.892;9.544;2022-11-12T08:33:39;13.60;87.00
1468;DHT22;727;48.892;9.544;2022-11-12T08:36:08;13.80;87.90
1468;DHT22;727;48.892;9.544;2022-11-12T08:38:35;13.70;88.00
1468;DHT22;727;48.892;9.544;2022-11-12T08:41:03;14.10;90.10
1468;DHT22;727;48.892;9.544;2022-11-12T08:43:31;14.50;88.40
1468;DHT22;727;48.892;9.544;2022-11-12T08:45:58;15.00;87.90
1468;DHT22;727;48.892;9.544;2022-11-12T08:48:27;15.10;86.00
1468;DHT22;727;48.892;9.544;2022-11-12T08:50:54;15.00;84.80
1468;DHT22;727;48.892;9.544;2022-11-12T08:53:22;14.70;85.40
1468;DHT22;727;48.892;9.544;2022-11-12T08:55:52;15.10;86.90
1468;DHT22;727;48.892;9.544;2022-11-12T08:58:20;15.50;85.70
1468;DHT22;727;48.892;9.544;2022-11-12T09:00:47;16.50;84.00
1468;DHT22;727;48.892;9.544;2022-11-12T09:03:18;16.80;81.20
1468;DHT22;727;48.892;9.544;2022-11-12T09:05:46;17.30;79.20
1468;DHT22;727;48.892;9.544;2022-11-12T09:08:16;17.10;78.30
1468;DHT22;727;48.892;9.544;2022-11-12T09:10:44;16.60;78.70
1468;DHT22;727;48.892;9.544;2022-11-12T09:13:11;16.60;79.50
1468;DHT22;727;48.892;9.544;2022-11-12T09:15:38;16.90;79.20
1468;DHT22;727;48.892;9.544;2022-11-12T09:18:06;16.40;78.10
1468;DHT22;727;48.892;9.544;2022-11-12T09:20:34;16.20;80.20
1468;DHT22;727;48.892;9.544;2022-11-12T09:23:04;15.80;81.30
1468;DHT22;727;48.892;9.544;2022-11-12T09:25:32;15.80;81.90
1468;DHT22;727;48.892;9.544;2022-11-12T09:28:05;15.60;82.30
1468;DHT22;727;48.892;9.544;2022-11-12T09:30:32;15.20;83.70
1468;DHT22;727;48.892;9.544;2022-11-12T09:32:59;14.90;85.30
1468;DHT22;727;48.892;9.544;2022-11-12T09:35:25;14.40;86.70
1468;DHT22;727;48.892;9.544;2022-11-12T09:37:52;14.10;88.70
1468;DHT22;727;48.892;9.544;2022-11-12T09:40:21;13.80;90.00
1468;DHT22;727;48.892;9.544;2022-11-12T09:42:53;13.90;90.30
1468;DHT22;727;48.892;9.544;2022-11-12T09:45:25;14.10;90.40
1468;DHT22;727;48.892;9.544;2022-11-12T09:47:57;14.40;89.60
1468;DHT22;727;48.892;9.544;2022-11-12T09:50:27;14.30;90.00
1468;DHT22;727;48.892;9.544;2022-11-12T09:53:00;14.10;90.30
1468;DHT22;727;48.892;9.544;2022-11-12T09:55:33;14.00;90.70
1468;DHT22;727;48.892;9.544;2022-11-12T09:58:08;14.00;90.80
1468;DHT22;727;48.892;9.544;2022-11-12T10:00:37;13.90;91.00
1468;DHT22;727;48.892;9.544;2022-11-12T10:03:10;13.80;91.00
1468;DHT22;727;48.892;9.544;2022-11-12T10:05:44;13.60;91.30
1468;DHT22;727;48.892;9.544;2022-11-12T10:08:30;13.40;91.80
1468;DHT22;727;48.892;9.544;2022-11-12T10:11:14;13.60;91.70
1468;DHT22;727;48.892;9.544;2022-11-12T10:13:49;13.70;91.20
1468;DHT22;727;48.892;9.544;2022-11-12T10:16:34;13.80;91.40
1468;DHT22;727;48.892;9.544;2022-11-12T10:19:27;13.90;91.70
1468;DHT22;727;48.892;9.544;2022-11-12T10:22:03;14.20;91.20
1468;DHT22;727;48.892;9.544;2022-11-12T10:24:35;14.50;91.10
1468;DHT22;727;48.892;9.544;2022-11-12T10:27:12;14.50;92.10
1468;DHT22;727;48.892;9.544;2022-11-12T10:29:47;14.90;91.50
1468;DHT22;727;48.892;9.544;2022-11-12T10:32:15;15.50;90.20
1468;DHT22;727;48.892;9.544;2022-11-12T10:34:42;16.00;89.20
1468;DHT22;727;48.892;9.544;2022-11-12T10:37:13;16.00;88.10
1468;DHT22;727;48.892;9.544;2022-11-12T10:39:41;15.60;86.70
1468;DHT22;727;48.892;9.544;2022-11-12T10:42:11;15.80;87.70
1468;DHT22;727;48.892;9.544;2022-11-12T10:44:40;15.70;86.90
1468;DHT22;727;48.892;9.544;2022-11-12T10:47:19;15.80;86.70
1468;DHT22;727;48.892;9.544;2022-11-12T10:50:09;15.80;87.40
1468;DHT22;727;48.892;9.544;2022-11-12T10:52:38;15.70;87.20
1468;DHT22;727;48.892;9.544;2022-11-12T10:55:14;15.90;88.90
1468;DHT22;727;48.892;9.544;2022-11-12T10:57:43;16.70;85.80
1468;DHT22;727;48.892;9.544;2022-11-12T11:00:17;17.00;84.80
1468;DHT22;727;48.892;9.544;2022-11-12T11:02:46;17.70;83.10
1468;DHT22;727;48.892;9.544;2022-11-12T11:05:30;18.40;80.60
1468;DHT22;727;48.892;9.544;2022-11-12T11:07:57;18.80;78.70
1468;DHT22;727;48.892;9.544;2022-11-12T11:10:26;19.70;76.00
1468;DHT22;727;48.892;9.544;2022-11-12T11:13:17;20.10;74.40
1468;DHT22;727;48.892;9.544;2022-11-12T11:15:57;20.10;73.40
1468;DHT22;727;48.892;9.544;2022-11-12T11:18:25;20.20;73.00
1468;DHT22;727;48.892;9.544;2022-11-12T11:20:58;20.40;71.40
1468;DHT22;727;48.892;9.544;2022-11-12T11:23:29;20.30;71.70
1468;DHT22;727;48.892;9.544;2022-11-12T11:26:06;20.10;72.80
1468;DHT22;727;48.892;9.544;2022-11-12T11:28:40;19.60;72.50
1468;DHT22;727;48.892;9.544;2022-11-12T11:31:19;19.20;74.10
1468;DHT22;727;48.892;9.544;2022-11-12T11:33:55;19.00;74.90
1468;DHT22;727;48.892;9.544;2022-11-12T11:36:30;18.80;76.10
1468;DHT22;727;48.892;9.544;2022-11-12T11:39:04;18.60;76.80
1468;DHT22;727;48.892;9.544;2022-11-12T11:41:52;18.50;77.20
1468;DHT22;727;48.892;9.544;2022-11-12T11:44:28;18.70;76.90
1468;DHT22;727;48.892;9.544;2022-11-12T11:47:10;18.50;78.10
1468;DHT22;727;48.892;9.544;2022-11-12T11:49:51;18.60;78.10
1468;DHT22;727;48.892;9.544;2022-11-12T11:52:36;19.10;76.60
1468;DHT22;727;48.892;9.544;2022-11-12T11:55:13;19.00;76.40
1468;DHT22;727;48.892;9.544;2022-11-12T11:57:51;19.20;76.50
1468;DHT22;727;48.892;9.544;2022-11-12T12:00:22;19.30;77.00
1468;DHT22;727;48.892;9.544;2022-11-12T12:03:07;19.60;75.60
1468;DHT22;727;48.892;9.544;2022-11-12T12:05:41;19.80;75.80
1468;DHT22;727;48.892;9.544;2022-11-12T12:08:11;19.60;76.50
1468;DHT22;727;48.892;9.544;2022-11-12T12:10:49;19.90;76.20
1468;DHT22;727;48.892;9.544;2022-11-12T12:13:24;20.00;77.60
1468;DHT22;727;48.892;9.544;2022-11-12T12:16:10;20.10;77.10
1468;DHT22;727;48.892;9.544;2022-11-12T12:18:46;20.00;75.00
1468;DHT22;727;48.892;9.544;2022-11-12T12:21:17;19.80;75.10
1468;DHT22;727;48.892;9.544;2022-11-12T12:23:47;19.90;76.40
1468;DHT22;727;48.892;9.544;2022-11-12T12:26:18;20.10;75.40
1468;DHT22;727;48.892;9.544;2022-11-12T12:28:52;19.70;76.80
1468;DHT22;727;48.892;9.544;2022-11-12T12:31:24;19.50;76.80
1468;DHT22;727;48.892;9.544;2022-11-12T12:33:57;19.10;77.80
1468;DHT22;727;48.892;9.544;2022-11-12T12:36:29;18.80;78.90
1468;DHT22;727;48.892;9.544;2022-11-12T12:39:03;18.60;81.10
1468;DHT22;727;48.892;9.544;2022-11-12T12:41:33;18.80;80.20
1468;DHT22;727;48.892;9.544;2022-11-12T12:44:05;18.80;79.50
1468;DHT22;727;48.892;9.544;2022-11-12T12:46:38;19.00;79.30
1468;DHT22;727;48.892;9.544;2022-11-12T12:49:06;19.20;78.80
1468;DHT22;727;48.892;9.544;2022-11-12T12:51:36;19.10;80.20
1468;DHT22;727;48.892;9.544;2022-11-12T12:54:03;19.20;79.50
1468;DHT22;727;48.892;9.544;2022-11-12T12:56:44;19.50;79.70
1468;DHT22;727;48.892;9.544;2022-11-12T12:59:20;19.50;79.30
1468;DHT22;727;48.892;9.544;2022-11-12T13:01:55;19.60;78.70
1468;DHT22;727;48.892;9.544;2022-11-12T13:04:51;19.60;78.90
1468;DHT22;727;48.892;9.544;2022-11-12T13:07:22;19.40;78.90
1468;DHT22;727;48.892;9.544;2022-11-12T13:10:32;19.20;79.60
1468;DHT22;727;48.892;9.544;2022-11-12T13:13:03;18.80;81.00
1468;DHT22;727;48.892;9.544;2022-11-12T13:15:41;18.60;81.60
1468;DHT22;727;48.892;9.544;2022-11-12T13:18:10;18.30;82.80
1468;DHT22;727;48.892;9.544;2022-11-12T13:20:40;18.20;83.40
1468;DHT22;727;48.892;9.544;2022-11-12T13:25:50;17.60;86.00
1468;DHT22;727;48.892;9.544;2022-11-12T13:28:17;17.30;86.90
1468;DHT22;727;48.892;9.544;2022-11-12T13:30:58;17.10;87.80
1468;DHT22;727;48.892;9.544;2022-11-12T13:33:29;16.90;89.30
1468;DHT22;727;48.892;9.544;2022-11-12T13:36:26;16.80;90.10
1468;DHT22;727;48.892;9.544;2022-11-12T13:38:55;16.50;90.90
1468;DHT22;727;48.892;9.544;2022-11-12T13:41:36;16.60;91.20
1468;DHT22;727;48.892;9.544;2022-11-12T13:44:20;16.50;91.60
1468;DHT22;727;48.892;9.544;2022-11-12T13:46:49;16.40;91.80
1468;DHT22;727;48.892;9.544;2022-11-12T13:49:18;16.50;91.90
1468;DHT22;727;48.892;9.544;2022-11-12T13:51:47;16.60;91.90
1468;DHT22;727;48.892;9.544;2022-11-12T13:54:31;16.50;92.00
1468;DHT22;727;48.892;9.544;2022-11-12T14:00:19;16.20;92.70
1468;DHT22;727;48.892;9.544;2022-11-12T14:02:49;16.00;93.20
1468;DHT22;727;48.892;9.544;2022-11-12T14:05:20;15.80;93.70
1468;DHT22;727;48.892;9.544;2022-11-12T14:08:06;15.70;93.70
1468;DHT22;727;48.892;9.544;2022-11-12T14:10:43;15.60;94.00
1468;DHT22;727;48.892;9.544;2022-11-12T14:13:26;15.40;94.70
1468;DHT22;727;48.892;9.544;2022-11-12T14:16:09;15.20;95.00
1468;DHT22;727;48.892;9.544;2022-11-12T14:18:53;15.10;95.20
1468;DHT22;727;48.892;9.544;2022-11-12T14:21:27;15.00;95.80
1468;DHT22;727;48.892;9.544;2022-11-12T14:23:55;14.80;95.70
1468;DHT22;727;48.892;9.544;2022-11-12T14:26:36;14.70;96.30
1468;DHT22;727;48.892;9.544;2022-11-12T14:29:03;14.60;97.30
1468;DHT22;727;48.892;9.544;2022-11-12T14:31:30;14.50;98.20
1468;DHT22;727;48.892;9.544;2022-11-12T14:34:18;14.40;98.80
1468;DHT22;727;48.892;9.544;2022-11-12T14:36:46;14.30;99.50
1468;DHT22;727;48.892;9.544;2022-11-12T14:39:13;14.20;99.90
1468;DHT22;727;48.892;9.544;2022-11-12T14:41:42;14.00;99.90
1468;DHT22;727;48.892;9.544;2022-11-12T14:44:17;13.80;99.90
1468;DHT22;727;48.892;9.544;2022-11-12T14:46:46;13.70;99.90
1468;DHT22;727;48.892;9.544;2022-11-12T14:49:20;13.50;99.90
1468;DHT22;727;48.892;9.544;2022-11-12T14:51:53;13.40;99.90
1468;DHT22;727;48.892;9.544;2022-11-12T14:54:26;13.20;99.90
1468;DHT22;727;48.892;9.544;2022-11-12T14:56:54;13.10;99.90
1468;DHT22;727;48.892;9.544;2022-11-12T14:59:21;13.00;99.90
1468;DHT22;727;48.892;9.544;2022-11-12T15:02:05;12.80;99.90
1468;DHT22;727;48.892;9.544;2022-11-12T15:04:37;12.70;99.90
1468;DHT22;727;48.892;9.544;2022-11-12T15:10:29;12.50;99.90
1468;DHT22;727;48.892;9.544;2022-11-12T15:13:02;12.30;99.90
1468;DHT22;727;48.892;9.544;2022-11-12T15:15:32;12.10;99.90
1468;DHT22;727;48.892;9.544;2022-11-12T15:18:01;12.00;99.90
1468;DHT22;727;48.892;9.544;2022-11-12T15:20:29;11.80;99.90
1468;DHT22;727;48.892;9.544;2022-11-12T15:22:56;11.70;99.90
1468;DHT22;727;48.892;9.544;2022-11-12T15:25:25;11.60;99.90
1468;DHT22;727;48.892;9.544;2022-11-12T15:27:53;11.50;99.90
1468;DHT22;727;48.892;9.544;2022-11-12T15:30:22;11.30;99.90
1468;DHT22;727;48.892;9.544;2022-11-12T15:33:04;11.20;99.90
1468;DHT22;727;48.892;9.544;2022-11-12T15:35:34;11.10;99.90
1468;DHT22;727;48.892;9.544;2022-11-12T15:38:04;11.00;99.90
1468;DHT22;727;48.892;9.544;2022-11-12T15:40:36;10.80;99.90
1468;DHT22;727;48.892;9.544;2022-11-12T15:43:13;10.70;99.90
1468;DHT22;727;48.892;9.544;2022-11-12T15:45:41;10.60;99.90
1468;DHT22;727;48.892;9.544;2022-11-12T15:48:09;10.40;99.90
1468;DHT22;727;48.892;9.544;2022-11-12T15:50:36;10.30;99.90
1468;DHT22;727;48.892;9.544;2022-11-12T15:53:03;10.30;99.90
1468;DHT22;727;48.892;9.544;2022-11-12T15:55:31;10.10;99.90
1468;DHT22;727;48.892;9.544;2022-11-12T15:57:58;10.00;99.90
1468;DHT22;727;48.892;9.544;2022-11-12T16:00:31;10.00;99.90
1468;DHT22;727;48.892;9.544;2022-11-12T16:03:02;9.90;99.90
1468;DHT22;727;48.892;9.544;2022-11-12T16:05:31;9.80;99.90
1468;DHT22;727;48.892;9.544;2022-11-12T16:07:58;9.80;99.90
1468;DHT22;727;48.892;9.544;2022-11-12T16:10:25;9.70;99.90
1468;DHT22;727;48.892;9.544;2022-11-12T16:12:55;9.70;99.90
1468;DHT22;727;48.892;9.544;2022-11-12T16:15:22;9.60;99.90
1468;DHT22;727;48.892;9.544;2022-11-12T16:17:52;9.50;99.90
1468;DHT22;727;48.892;9.544;2022-11-12T16:20:21;9.40;99.90
1468;DHT22;727;48.892;9.544;2022-11-12T16:22:48;9.30;99.90
1468;DHT22;727;48.892;9.544;2022-11-12T16:25:16;9.20;99.90
1468;DHT22;727;48.892;9.544;2022-11-12T16:27:43;9.20;99.90
1468;DHT22;727;48.892;9.544;2022-11-12T16:30:13;9.10;99.90
1468;DHT22;727;48.892;9.544;2022-11-12T16:32:40;9.00;99.90
1468;DHT22;727;48.892;9.544;2022-11-12T16:35:11;9.00;99.90
1468;DHT22;727;48.892;9.544;2022-11-12T16:37:38;8.90;99.90
1468;DHT22;727;48.892;9.544;2022-11-12T16:40:06;9.00;99.90
1468;DHT22;727;48.892;9.544;2022-11-12T16:42:35;9.10;99.90
1468;DHT22;727;48.892;9.544;2022-11-12T16:45:02;9.20;99.90
1468;DHT22;727;48.892;9.544;2022-11-12T16:47:30;9.20;99.90
1468;DHT22;727;48.892;9.544;2022-11-12T16:49:56;9.10;99.90
1468;DHT22;727;48.892;9.544;2022-11-12T16:52:24;9.10;99.90
1468;DHT22;727;48.892;9.544;2022-11-12T16:54:51;9.10;99.90
1468;DHT22;727;48.892;9.544;2022-11-12T16:57:19;9.20;99.90